createdAt,value
2023-01-29T00:01:52.617Z,27.15
2023-01-29T00:04:19.806Z,28.73
2023-01-29T00:06:46.496Z,28.85
2023-01-29T00:09:13.604Z,27.48
2023-01-29T00:11:40.940Z,27.33
2023-01-29T00:14:08.123Z,26.40
2023-01-29T00:16:35.042Z,27.92
2023-01-29T00:19:02.973Z,28.00
2023-01-29T00:21:33.350Z,29.10
2023-01-29T00:24:00.550Z,29.67
2023-01-29T00:26:27.909Z,28.60
2023-01-29T00:28:57.322Z,26.52
2023-01-29T00:31:25.061Z,26.48
2023-01-29T00:33:52.763Z,29.77
2023-01-29T00:36:20.848Z,27.40
2023-01-29T00:38:54.558Z,27.48
2023-01-29T00:41:42.223Z,26.85
2023-01-29T00:44:28.112Z,27.52
2023-01-29T00:46:54.921Z,28.50
2023-01-29T00:49:22.091Z,25.85
2023-01-29T00:52:09.318Z,27.75
2023-01-29T00:54:36.639Z,25.15
2023-01-29T00:57:04.514Z,27.70
2023-01-29T00:59:31.888Z,26.20
2023-01-29T01:02:17.412Z,28.88
2023-01-29T01:04:44.128Z,25.85
2023-01-29T01:09:55.796Z,24.43
2023-01-29T01:12:23.079Z,26.65
2023-01-29T01:14:50.159Z,25.40
2023-01-29T01:17:17.155Z,26.23
2023-01-29T01:19:43.943Z,28.42
2023-01-29T01:22:11.208Z,27.52
2023-01-29T01:24:38.340Z,26.73
2023-01-29T01:27:05.819Z,26.95
2023-01-29T01:29:32.617Z,26.05
2023-01-29T01:31:59.686Z,24.63
2023-01-29T01:34:27.109Z,25.17
2023-01-29T01:36:55.972Z,25.10
2023-01-29T01:39:23.539Z,23.33
2023-01-29T01:41:53.386Z,23.67
2023-01-29T01:44:53.292Z,27.60
2023-01-29T01:47:24.481Z,24.77
2023-01-29T01:49:51.702Z,24.05
2023-01-29T01:52:19.890Z,25.13
2023-01-29T01:54:47.552Z,23.95
2023-01-29T01:57:25.172Z,22.95
2023-01-29T02:00:03.852Z,25.95
2023-01-29T02:03:01.423Z,23.08
2023-01-29T02:05:49.198Z,27.10
2023-01-29T02:08:43.254Z,24.20
2023-01-29T02:11:10.404Z,24.17
2023-01-29T02:13:37.125Z,23.95
2023-01-29T02:16:03.911Z,23.80
2023-01-29T02:18:37.853Z,23.40
2023-01-29T02:21:14.831Z,23.33
2023-01-29T02:24:16.102Z,23.85
2023-01-29T02:26:57.732Z,23.88
2023-01-29T02:29:50.238Z,20.88
2023-01-29T02:32:38.192Z,21.17
2023-01-29T02:35:25.933Z,21.02
2023-01-29T02:37:52.619Z,23.05
2023-01-29T02:40:32.052Z,22.63
2023-01-29T02:43:37.190Z,23.88
2023-01-29T02:46:32.264Z,24.80
2023-01-29T02:49:24.676Z,22.90
2023-01-29T02:52:19.012Z,21.48
2023-01-29T02:54:56.123Z,21.65
2023-01-29T02:57:29.082Z,21.58
2023-01-29T03:00:02.601Z,21.65
2023-01-29T03:02:41.679Z,22.80
2023-01-29T03:05:13.497Z,22.65
2023-01-29T03:07:48.616Z,23.30
2023-01-29T03:10:31.271Z,23.48
2023-01-29T03:13:14.678Z,24.27
2023-01-29T03:15:54.788Z,22.45
2023-01-29T03:18:45.752Z,21.83
2023-01-29T03:21:51.105Z,21.38
2023-01-29T03:25:00.260Z,22.55
2023-01-29T03:28:00.090Z,26.38
2023-01-29T03:30:55.217Z,23.95
2023-01-29T03:33:35.553Z,22.58
2023-01-29T03:36:14.218Z,23.65
2023-01-29T03:38:41.054Z,23.05
2023-01-29T03:41:13.011Z,21.88
2023-01-29T03:44:16.938Z,23.13
2023-01-29T03:46:56.505Z,23.15
2023-01-29T03:49:54.602Z,23.50
2023-01-29T03:52:44.904Z,23.80
2023-01-29T03:55:16.768Z,26.02
2023-01-29T03:58:04.763Z,25.73
2023-01-29T04:00:39.203Z,23.95
2023-01-29T04:03:17.874Z,24.70
2023-01-29T04:05:58.496Z,22.45
2023-01-29T04:08:48.792Z,25.25
2023-01-29T04:11:18.722Z,21.17
2023-01-29T04:13:46.444Z,22.30
2023-01-29T04:16:25.177Z,23.35
2023-01-29T04:19:11.536Z,22.90
2023-01-29T04:21:41.703Z,21.38
2023-01-29T04:24:09.857Z,24.42
2023-01-29T04:26:53.982Z,22.73
2023-01-29T04:29:29.920Z,25.45
2023-01-29T04:32:13.926Z,23.67
2023-01-29T04:34:57.517Z,25.52
2023-01-29T04:37:27.447Z,26.60
2023-01-29T04:40:00.141Z,22.05
2023-01-29T04:42:36.121Z,23.48
2023-01-29T04:45:30.995Z,25.02
2023-01-29T04:48:08.043Z,24.88
2023-01-29T04:50:44.294Z,22.00
2023-01-29T04:53:34.642Z,25.13
2023-01-29T04:56:25.855Z,24.55
2023-01-29T04:58:59.388Z,22.15
2023-01-29T05:01:30.071Z,23.25
2023-01-29T05:03:58.226Z,23.77
2023-01-29T05:06:26.360Z,23.63
2023-01-29T05:08:55.188Z,24.50
2023-01-29T05:11:24.005Z,22.95
2023-01-29T05:13:51.200Z,24.35
2023-01-29T05:16:26.220Z,24.10
2023-01-29T05:18:53.926Z,23.73
2023-01-29T05:21:23.032Z,23.55
2023-01-29T05:24:09.344Z,22.58
2023-01-29T05:26:54.956Z,24.27
2023-01-29T05:29:21.943Z,25.15
2023-01-29T05:31:48.690Z,23.98
2023-01-29T05:34:15.418Z,22.38
2023-01-29T05:36:42.095Z,25.42
2023-01-29T05:39:08.788Z,23.63
2023-01-29T05:41:35.495Z,24.17
2023-01-29T05:44:02.185Z,25.73
2023-01-29T05:46:28.871Z,25.80
2023-01-29T05:48:55.673Z,23.83
2023-01-29T05:51:22.594Z,23.23
2023-01-29T05:53:49.304Z,23.10
2023-01-29T05:56:15.939Z,25.70
2023-01-29T05:58:42.705Z,25.52
2023-01-29T06:01:17.786Z,24.08
2023-01-29T06:03:45.384Z,25.13
2023-01-29T06:06:12.774Z,25.55
2023-01-29T06:08:39.772Z,28.33
2023-01-29T06:11:11.848Z,25.33
2023-01-29T06:13:38.848Z,25.83
2023-01-29T06:16:07.252Z,24.85
2023-01-29T06:18:35.272Z,24.52
2023-01-29T06:21:03.001Z,23.30
2023-01-29T06:23:30.198Z,27.13
2023-01-29T06:26:05.925Z,23.95
2023-01-29T06:28:32.792Z,25.60
2023-01-29T06:31:22.120Z,24.63
2023-01-29T06:33:50.650Z,27.58
2023-01-29T06:36:17.318Z,27.20
2023-01-29T06:38:43.973Z,29.25
2023-01-29T06:41:18.030Z,27.45
2023-01-29T06:43:45.907Z,26.55
2023-01-29T06:46:12.800Z,26.70
2023-01-29T06:48:39.795Z,26.17
2023-01-29T06:51:08.825Z,27.02
2023-01-29T06:53:36.909Z,25.83
2023-01-29T06:56:05.340Z,29.20
2023-01-29T06:58:32.237Z,28.45
2023-01-29T07:01:07.597Z,28.38
2023-01-29T07:03:34.767Z,27.15
2023-01-29T07:06:01.767Z,27.23
2023-01-29T07:08:28.477Z,28.40
2023-01-29T07:11:01.311Z,29.30
2023-01-29T07:13:28.548Z,32.03
2023-01-29T07:15:59.146Z,27.90
2023-01-29T07:18:26.923Z,28.75
2023-01-29T07:20:53.576Z,28.63
2023-01-29T07:23:20.239Z,31.73
2023-01-29T07:25:49.619Z,28.90
2023-01-29T07:28:18.186Z,29.15
2023-01-29T07:30:45.212Z,27.83
2023-01-29T07:33:12.138Z,29.80
2023-01-29T07:35:41.223Z,31.35
2023-01-29T07:38:09.698Z,29.02
2023-01-29T07:40:36.746Z,30.52
2023-01-29T07:43:06.699Z,32.55
2023-01-29T07:45:36.251Z,30.48
2023-01-29T07:48:04.931Z,29.38
2023-01-29T07:50:33.472Z,30.33
2023-01-29T07:53:00.514Z,29.38
2023-01-29T07:55:27.480Z,30.13
2023-01-29T07:57:56.313Z,29.90
2023-01-29T08:00:23.829Z,30.17
2023-01-29T08:02:50.870Z,32.22
2023-01-29T08:05:17.911Z,27.27
2023-01-29T08:07:49.255Z,29.27
2023-01-29T08:10:20.935Z,30.95
2023-01-29T08:12:47.814Z,30.48
2023-01-29T08:15:14.624Z,29.52
2023-01-29T08:20:29.224Z,32.75
2023-01-29T08:23:04.437Z,30.38
2023-01-29T08:25:31.336Z,29.60
2023-01-29T08:27:59.157Z,31.42
2023-01-29T08:30:30.539Z,30.55
2023-01-29T08:32:57.537Z,28.50
2023-01-29T08:35:25.141Z,32.35
2023-01-29T08:38:00.125Z,30.25
2023-01-29T08:40:28.556Z,31.17
2023-01-29T08:43:21.576Z,30.38
2023-01-29T08:45:48.391Z,30.80
2023-01-29T08:48:15.151Z,32.38
2023-01-29T08:50:41.860Z,33.53
2023-01-29T08:53:09.479Z,31.77
2023-01-29T08:55:37.897Z,34.80
2023-01-29T08:58:06.457Z,34.40
2023-01-29T09:00:34.520Z,31.88
2023-01-29T09:03:01.287Z,31.92
2023-01-29T09:05:28.524Z,31.05
2023-01-29T09:07:57.673Z,31.30
2023-01-29T09:10:24.552Z,31.38
2023-01-29T09:12:51.376Z,33.50
2023-01-29T09:15:18.633Z,30.45
2023-01-29T09:17:45.772Z,31.90
2023-01-29T09:20:12.505Z,32.67
2023-01-29T09:22:39.182Z,31.42
2023-01-29T09:25:06.524Z,30.90
2023-01-29T09:27:33.219Z,29.25
2023-01-29T09:29:59.914Z,31.25
2023-01-29T09:32:52.032Z,27.60
2023-01-29T09:35:13.364Z,27.80
2023-01-29T09:37:40.048Z,28.75
2023-01-29T09:40:08.156Z,31.15
2023-01-29T09:42:50.120Z,31.55
2023-01-29T09:45:24.556Z,29.15
2023-01-29T09:47:51.796Z,27.63
2023-01-29T09:50:26.564Z,29.77
2023-01-29T09:53:17.234Z,28.70
2023-01-29T09:55:52.893Z,28.85
2023-01-29T09:58:31.894Z,30.42
2023-01-29T10:01:27.505Z,23.58
2023-01-29T10:04:13.067Z,30.38
2023-01-29T10:07:02.888Z,28.95
2023-01-29T10:09:48.420Z,30.25
2023-01-29T10:12:21.104Z,35.28
2023-01-29T10:15:19.497Z,30.30
2023-01-29T10:18:04.002Z,28.42
2023-01-29T10:20:43.614Z,25.15
2023-01-29T10:23:26.948Z,27.75
2023-01-29T10:25:54.440Z,31.05
2023-01-29T10:28:28.051Z,31.02
2023-01-29T10:31:11.342Z,30.25
2023-01-29T10:33:59.480Z,30.38
2023-01-29T10:36:35.964Z,29.17
2023-01-29T10:39:03.057Z,33.65
2023-01-29T10:41:53.977Z,29.55
2023-01-29T10:44:42.187Z,31.85
2023-01-29T10:47:28.579Z,32.85
2023-01-29T10:50:01.820Z,28.90
2023-01-29T10:52:47.314Z,33.05
2023-01-29T10:55:51.690Z,28.33
2023-01-29T10:58:44.971Z,29.13
2023-01-29T11:01:13.021Z,30.08
2023-01-29T11:03:39.955Z,29.88
2023-01-29T11:06:24.044Z,32.47
2023-01-29T11:09:20.222Z,29.85
2023-01-29T11:11:52.222Z,29.95
2023-01-29T11:14:28.573Z,30.00
2023-01-29T11:16:55.855Z,27.15
2023-01-29T11:19:51.122Z,30.35
2023-01-29T11:22:23.241Z,28.63
2023-01-29T11:25:16.011Z,29.80
2023-01-29T11:27:50.251Z,30.85
2023-01-29T11:30:26.907Z,26.15
2023-01-29T11:33:19.702Z,29.30
2023-01-29T11:35:46.672Z,28.55
2023-01-29T11:38:16.359Z,33.20
2023-01-29T11:40:43.408Z,29.20
2023-01-29T11:43:30.975Z,26.35
2023-01-29T11:46:05.539Z,29.27
2023-01-29T11:48:43.965Z,28.67
2023-01-29T11:51:19.926Z,30.92
2023-01-29T11:53:52.588Z,27.00
2023-01-29T11:56:23.966Z,29.30
2023-01-29T11:58:52.691Z,29.60
2023-01-29T12:01:31.312Z,29.50
2023-01-29T12:03:58.509Z,28.33
2023-01-29T12:06:41.360Z,28.25
2023-01-29T12:09:17.388Z,28.85
2023-01-29T12:11:44.250Z,29.00
2023-01-29T12:14:33.335Z,28.42
2023-01-29T12:17:04.069Z,27.38
2023-01-29T12:19:48.847Z,27.83
2023-01-29T12:22:26.124Z,27.42
2023-01-29T12:24:58.629Z,28.10
2023-01-29T12:27:36.400Z,27.33
2023-01-29T12:30:27.483Z,29.25
2023-01-29T12:33:12.721Z,30.75
2023-01-29T12:35:47.800Z,28.35
2023-01-29T12:38:19.097Z,28.02
2023-01-29T12:41:22.583Z,28.65
2023-01-29T12:43:53.540Z,26.42
2023-01-29T12:46:34.701Z,30.80
2023-01-29T12:49:04.697Z,30.23
2023-01-29T12:51:41.127Z,27.50
2023-01-29T12:54:12.317Z,28.42
2023-01-29T12:56:52.648Z,30.63
2023-01-29T12:59:47.253Z,28.02
2023-01-29T13:02:42.720Z,25.17
2023-01-29T13:05:30.667Z,27.90
2023-01-29T13:08:17.469Z,27.13
2023-01-29T13:10:49.435Z,25.02
2023-01-29T13:13:34.359Z,28.15
2023-01-29T13:16:03.666Z,28.95
2023-01-29T13:18:59.380Z,28.25
2023-01-29T13:21:31.052Z,26.20
2023-01-29T13:24:05.398Z,27.48
2023-01-29T13:26:40.463Z,26.00
2023-01-29T13:29:07.287Z,26.67
2023-01-29T13:31:36.461Z,26.27
2023-01-29T13:34:05.861Z,24.90
2023-01-29T13:36:33.636Z,26.67
2023-01-29T13:39:05.478Z,27.35
2023-01-29T13:41:38.507Z,25.40
2023-01-29T13:44:08.048Z,25.60
2023-01-29T13:46:39.544Z,25.90
2023-01-29T13:49:22.308Z,24.20
2023-01-29T13:51:48.974Z,24.33
2023-01-29T13:54:24.132Z,22.92
2023-01-29T13:57:01.091Z,21.50
2023-01-29T13:59:53.864Z,25.50
2023-01-29T14:02:24.096Z,26.35
2023-01-29T14:04:51.346Z,24.20
2023-01-29T14:07:45.556Z,25.05
2023-01-29T14:10:19.562Z,27.00
2023-01-29T14:12:47.496Z,26.10
2023-01-29T14:15:21.754Z,26.98
2023-01-29T14:18:19.804Z,25.20
2023-01-29T14:20:58.697Z,23.98
2023-01-29T14:23:46.564Z,24.17
2023-01-29T14:26:20.055Z,23.95
2023-01-29T14:29:03.235Z,22.05
2023-01-29T14:31:50.308Z,22.67
2023-01-29T14:34:50.780Z,27.83
2023-01-29T14:37:18.700Z,23.05
2023-01-29T14:39:49.929Z,25.02
2023-01-29T14:42:22.507Z,22.33
2023-01-29T14:44:58.382Z,25.20
2023-01-29T14:47:27.816Z,26.10
2023-01-29T14:49:57.083Z,24.63
2023-01-29T14:52:35.588Z,26.20
2023-01-29T14:55:07.639Z,26.63
2023-01-29T14:57:36.709Z,24.38
2023-01-29T15:00:07.130Z,21.00
2023-01-29T15:02:44.772Z,22.05
2023-01-29T15:05:18.537Z,22.08
2023-01-29T15:08:04.537Z,24.35
2023-01-29T15:10:45.648Z,24.33
2023-01-29T15:13:32.748Z,24.00
2023-01-29T15:16:10.977Z,25.30
2023-01-29T15:18:40.499Z,23.17
2023-01-29T15:21:15.995Z,24.08
2023-01-29T15:23:44.052Z,23.95
2023-01-29T15:26:20.355Z,23.23
2023-01-29T15:29:03.375Z,23.88
2023-01-29T15:31:31.231Z,24.02
2023-01-29T15:34:07.312Z,22.98
2023-01-29T15:36:34.279Z,22.73
2023-01-29T15:39:15.155Z,22.98
2023-01-29T15:41:43.089Z,24.50
2023-01-29T15:44:16.587Z,22.75
2023-01-29T15:46:47.233Z,23.20
2023-01-29T15:49:29.183Z,25.10
2023-01-29T15:51:58.444Z,23.25
2023-01-29T15:54:30.059Z,23.27
2023-01-29T15:56:58.698Z,23.85
2023-01-29T15:59:29.235Z,23.42
2023-01-29T16:01:56.286Z,24.00
2023-01-29T16:04:31.346Z,24.70
2023-01-29T16:07:00.393Z,23.48
2023-01-29T16:09:28.678Z,24.10
2023-01-29T16:11:58.620Z,24.67
2023-01-29T16:14:26.568Z,23.67
2023-01-29T16:16:54.049Z,21.77
2023-01-29T16:19:25.925Z,25.65
2023-01-29T16:21:59.869Z,24.02
2023-01-29T16:24:27.634Z,21.85
2023-01-29T16:27:13.011Z,22.10
2023-01-29T16:29:40.505Z,24.45
2023-01-29T16:32:10.000Z,24.48
2023-01-29T16:34:45.640Z,24.35
2023-01-29T16:37:33.408Z,21.67
2023-01-29T16:40:00.243Z,22.42
2023-01-29T16:42:28.304Z,25.17
2023-01-29T16:45:02.512Z,22.10
2023-01-29T16:47:38.487Z,20.70
2023-01-29T16:50:36.199Z,19.50
2023-01-29T16:53:13.386Z,18.95
2023-01-29T16:55:43.492Z,16.52
2023-01-29T16:58:17.180Z,14.40
2023-01-29T17:00:51.760Z,16.80
2023-01-29T17:03:19.482Z,15.27
2023-01-29T17:05:46.970Z,13.85
2023-01-29T17:08:30.404Z,14.02
2023-01-29T17:10:58.652Z,14.15
2023-01-29T17:13:42.678Z,13.40
2023-01-29T17:16:29.211Z,13.82
2023-01-29T17:18:56.272Z,13.20
2023-01-29T17:21:23.061Z,12.45
2023-01-29T17:23:50.074Z,12.00
2023-01-29T17:26:17.313Z,11.43
2023-01-29T17:28:44.533Z,11.65
2023-01-29T17:31:11.249Z,11.75
2023-01-29T17:33:41.758Z,11.68
2023-01-29T17:36:13.716Z,11.95
2023-01-29T17:38:41.306Z,12.00
2023-01-29T17:41:28.303Z,13.55
2023-01-29T17:43:54.975Z,11.57
2023-01-29T17:46:21.749Z,14.48
2023-01-29T17:48:52.247Z,14.80
2023-01-29T17:51:19.219Z,13.93
2023-01-29T17:53:47.070Z,13.35
2023-01-29T17:56:21.433Z,13.43
2023-01-29T17:58:48.433Z,13.88
2023-01-29T18:01:15.461Z,13.30
2023-01-29T18:03:42.163Z,13.90
2023-01-29T18:06:09.841Z,14.27
2023-01-29T18:08:38.594Z,14.35
2023-01-29T18:11:05.945Z,15.98
2023-01-29T18:13:32.693Z,14.32
2023-01-29T18:15:59.547Z,15.85
2023-01-29T18:18:26.270Z,15.38
2023-01-29T18:20:53.735Z,16.45
2023-01-29T18:23:20.433Z,15.90
2023-01-29T18:25:47.176Z,17.70
2023-01-29T18:28:17.855Z,17.15
2023-01-29T18:30:47.837Z,17.42
2023-01-29T18:33:16.088Z,14.68
2023-01-29T18:35:48.140Z,15.98
2023-01-29T18:38:14.855Z,21.70
2023-01-29T18:40:41.865Z,16.98
2023-01-29T18:43:08.764Z,18.80
2023-01-29T18:45:35.622Z,15.75
2023-01-29T18:48:02.381Z,19.38
2023-01-29T18:50:29.091Z,22.42
2023-01-29T18:52:56.090Z,17.58
2023-01-29T18:55:23.753Z,16.67
2023-01-29T18:58:29.030Z,17.40
2023-01-29T19:00:41.302Z,13.77
2023-01-29T19:03:07.986Z,16.98
2023-01-29T19:05:34.787Z,17.10
2023-01-29T19:08:01.735Z,15.35
2023-01-29T19:10:28.590Z,16.10
2023-01-29T19:12:55.219Z,15.38
2023-01-29T19:15:22.683Z,15.15
2023-01-29T19:17:52.483Z,16.35
2023-01-29T19:20:19.454Z,13.98
2023-01-29T19:22:46.357Z,16.38
2023-01-29T19:25:13.116Z,16.90
2023-01-29T19:27:39.832Z,16.40
2023-01-29T19:30:07.390Z,15.70
2023-01-29T19:32:34.509Z,16.63
2023-01-29T19:35:01.314Z,16.30
2023-01-29T19:37:28.416Z,15.98
2023-01-29T19:39:55.056Z,15.57
2023-01-29T19:42:22.199Z,15.50
2023-01-29T19:44:50.491Z,14.65
2023-01-29T19:47:17.231Z,17.75
2023-01-29T19:49:44.633Z,16.67
2023-01-29T19:52:38.544Z,15.60
2023-01-29T19:55:16.174Z,16.17
2023-01-29T19:57:43.442Z,17.33
2023-01-29T20:00:11.970Z,16.42
2023-01-29T20:02:38.694Z,16.55
2023-01-29T20:05:06.970Z,17.73
2023-01-29T20:07:35.783Z,17.42
2023-01-29T20:10:03.392Z,17.92
2023-01-29T20:12:30.339Z,18.60
2023-01-29T20:14:57.004Z,18.58
2023-01-29T20:17:23.839Z,17.08
2023-01-29T20:19:50.494Z,18.88
2023-01-29T20:22:17.456Z,19.73
2023-01-29T20:24:44.193Z,19.27
2023-01-29T20:27:11.731Z,18.85
2023-01-29T20:29:39.342Z,19.38
2023-01-29T20:32:08.724Z,21.00
2023-01-29T20:34:36.000Z,18.67
2023-01-29T20:37:02.699Z,17.63
2023-01-29T20:39:29.365Z,18.00
2023-01-29T20:41:57.221Z,18.58
2023-01-29T20:44:24.666Z,17.55
2023-01-29T20:46:51.837Z,20.15
2023-01-29T20:49:19.135Z,17.77
2023-01-29T20:51:46.161Z,18.65
2023-01-29T20:54:12.981Z,19.33
2023-01-29T20:56:46.485Z,20.70
2023-01-29T20:59:14.926Z,20.17
2023-01-29T21:01:42.956Z,21.67
2023-01-29T21:04:09.651Z,20.45
2023-01-29T21:06:36.373Z,22.38
2023-01-29T21:09:03.251Z,19.55
2023-01-29T21:11:30.102Z,22.23
2023-01-29T21:13:57.770Z,20.67
2023-01-29T21:16:26.138Z,23.35
2023-01-29T21:18:56.692Z,20.55
2023-01-29T21:21:24.267Z,19.73
2023-01-29T21:23:51.423Z,20.25
2023-01-29T21:26:18.887Z,20.02
2023-01-29T21:28:46.079Z,19.73
2023-01-29T21:31:14.428Z,20.17
2023-01-29T21:33:41.678Z,20.95
2023-01-29T21:36:09.921Z,21.45
2023-01-29T21:38:37.137Z,20.42
2023-01-29T21:41:06.303Z,21.65
2023-01-29T21:43:33.213Z,22.17
2023-01-29T21:46:03.814Z,20.27
2023-01-29T21:48:31.157Z,21.73
2023-01-29T21:50:58.155Z,22.10
2023-01-29T21:53:25.227Z,22.08
2023-01-29T21:55:52.174Z,19.05
2023-01-29T21:58:20.570Z,19.70
2023-01-29T22:00:48.696Z,20.38
2023-01-29T22:03:15.746Z,19.85
2023-01-29T22:05:42.565Z,20.08
2023-01-29T22:08:09.817Z,18.30
2023-01-29T22:10:37.501Z,18.00
2023-01-29T22:13:04.328Z,20.75
2023-01-29T22:15:30.998Z,18.27
2023-01-29T22:17:57.711Z,19.15
2023-01-29T22:20:29.990Z,17.88
2023-01-29T22:23:00.356Z,19.50
2023-01-29T22:25:27.078Z,16.50
2023-01-29T22:27:53.863Z,18.00
2023-01-29T22:30:21.582Z,16.83
2023-01-29T22:32:48.530Z,17.17
2023-01-29T22:35:15.220Z,19.58
2023-01-29T22:37:41.907Z,17.85
2023-01-29T22:40:09.178Z,17.55
2023-01-29T22:42:35.843Z,18.85
2023-01-29T22:45:02.708Z,19.20
2023-01-29T22:47:31.977Z,19.00
2023-01-29T22:49:58.607Z,19.83
2023-01-29T22:52:27.818Z,19.88
2023-01-29T22:54:54.526Z,18.55
2023-01-29T22:57:21.175Z,20.75
2023-01-29T22:59:47.875Z,21.80
2023-01-29T23:02:14.535Z,20.10
2023-01-29T23:04:41.215Z,20.90
2023-01-29T23:07:07.907Z,21.98
2023-01-29T23:09:34.603Z,22.30
2023-01-29T23:12:01.331Z,23.50
2023-01-29T23:14:28.040Z,20.05
2023-01-29T23:16:54.712Z,23.00
2023-01-29T23:19:21.549Z,21.67
2023-01-29T23:21:48.260Z,21.23
2023-01-29T23:24:15.357Z,20.17
2023-01-29T23:27:00.712Z,22.33
2023-01-29T23:29:27.351Z,22.92
2023-01-29T23:31:54.039Z,20.38
2023-01-29T23:34:20.730Z,21.23
2023-01-29T23:36:47.444Z,20.77
2023-01-29T23:39:14.093Z,18.73
2023-01-29T23:41:40.806Z,20.50
2023-01-29T23:44:07.595Z,19.45
2023-01-29T23:46:34.332Z,19.25
2023-01-29T23:49:01.183Z,19.92
2023-01-29T23:51:28.169Z,19.23
2023-01-29T23:53:55.227Z,21.33
2023-01-29T23:56:22.235Z,18.92
2023-01-29T23:58:55.840Z,19.80
